sensor_id;sensor_type;location;lat;lon;timestamp;P1;durP1;ratioP1;P2;durP2;ratioP2
34405;SDS011;20658;45.630;8.886;2023-07-02T00:01:57;15.63;;;8.77;;
34405;SDS011;20658;45.630;8.886;2023-07-02T00:04:31;14.60;;;8.63;;
34405;SDS011;20658;45.630;8.886;2023-07-02T00:07:04;13.00;;;8.07;;
34405;SDS011;20658;45.630;8.886;2023-07-02T00:09:38;12.43;;;8.45;;
34405;SDS011;20658;45.630;8.886;2023-07-02T00:12:12;13.35;;;8.30;;
34405;SDS011;20658;45.630;8.886;2023-07-02T00:14:46;15.05;;;8.48;;
34405;SDS011;20658;45.630;8.886;2023-07-02T00:17:21;16.40;;;7.45;;
34405;SDS011;20658;45.630;8.886;2023-07-02T00:19:55;15.93;;;7.95;;
34405;SDS011;20658;45.630;8.886;2023-07-02T00:22:28;16.73;;;9.70;;
34405;SDS011;20658;45.630;8.886;2023-07-02T00:25:02;15.27;;;8.43;;
34405;SDS011;20658;45.630;8.886;2023-07-02T00:27:36;14.82;;;8.43;;
34405;SDS011;20658;45.630;8.886;2023-07-02T00:30:10;16.27;;;8.98;;
34405;SDS011;20658;45.630;8.886;2023-07-02T00:32:45;17.23;;;8.52;;
34405;SDS011;20658;45.630;8.886;2023-07-02T00:35:19;16.63;;;9.35;;
34405;SDS011;20658;45.630;8.886;2023-07-02T00:37:53;13.70;;;9.13;;
34405;SDS011;20658;45.630;8.886;2023-07-02T00:40:26;15.57;;;10.25;;
34405;SDS011;20658;45.630;8.886;2023-07-02T00:43:00;15.38;;;9.35;;
34405;SDS011;20658;45.630;8.886;2023-07-02T00:45:33;15.18;;;8.27;;
34405;SDS011;20658;45.630;8.886;2023-07-02T00:48:03;14.65;;;9.05;;
34405;SDS011;20658;45.630;8.886;2023-07-02T00:50:32;13.30;;;8.25;;
34405;SDS011;20658;45.630;8.886;2023-07-02T00:53:06;16.45;;;9.02;;
34405;SDS011;20658;45.630;8.886;2023-07-02T00:55:39;15.25;;;9.40;;
34405;SDS011;20658;45.630;8.886;2023-07-02T00:58:13;16.58;;;9.25;;
34405;SDS011;20658;45.630;8.886;2023-07-02T01:00:47;17.27;;;8.15;;
34405;SDS011;20658;45.630;8.886;2023-07-02T01:03:22;14.48;;;9.48;;
34405;SDS011;20658;45.630;8.886;2023-07-02T01:05:56;16.13;;;9.00;;
34405;SDS011;20658;45.630;8.886;2023-07-02T01:08:30;14.30;;;8.13;;
34405;SDS011;20658;45.630;8.886;2023-07-02T01:11:04;11.77;;;7.18;;
34405;SDS011;20658;45.630;8.886;2023-07-02T01:13:37;11.93;;;7.78;;
34405;SDS011;20658;45.630;8.886;2023-07-02T01:16:11;15.30;;;8.55;;
34405;SDS011;20658;45.630;8.886;2023-07-02T01:18:46;14.10;;;9.15;;
34405;SDS011;20658;45.630;8.886;2023-07-02T01:21:18;13.98;;;8.32;;
34405;SDS011;20658;45.630;8.886;2023-07-02T01:23:53;17.10;;;9.93;;
34405;SDS011;20658;45.630;8.886;2023-07-02T01:26:28;14.25;;;8.68;;
34405;SDS011;20658;45.630;8.886;2023-07-02T01:29:15;15.90;;;9.88;;
34405;SDS011;20658;45.630;8.886;2023-07-02T01:31:44;20.20;;;12.85;;
34405;SDS011;20658;45.630;8.886;2023-07-02T01:34:19;16.75;;;10.60;;
34405;SDS011;20658;45.630;8.886;2023-07-02T01:36:54;14.73;;;9.18;;
34405;SDS011;20658;45.630;8.886;2023-07-02T01:39:27;13.50;;;9.23;;
34405;SDS011;20658;45.630;8.886;2023-07-02T01:42:08;14.98;;;8.98;;
34405;SDS011;20658;45.630;8.886;2023-07-02T01:44:43;15.50;;;8.77;;
34405;SDS011;20658;45.630;8.886;2023-07-02T01:47:17;13.45;;;8.68;;
34405;SDS011;20658;45.630;8.886;2023-07-02T01:49:46;13.93;;;8.50;;
34405;SDS011;20658;45.630;8.886;2023-07-02T01:52:21;13.60;;;8.80;;
34405;SDS011;20658;45.630;8.886;2023-07-02T01:54:55;18.08;;;9.35;;
34405;SDS011;20658;45.630;8.886;2023-07-02T01:57:30;17.38;;;9.57;;
34405;SDS011;20658;45.630;8.886;2023-07-02T02:00:04;14.40;;;9.75;;
34405;SDS011;20658;45.630;8.886;2023-07-02T02:02:43;12.23;;;8.35;;
34405;SDS011;20658;45.630;8.886;2023-07-02T02:05:17;12.60;;;8.27;;
34405;SDS011;20658;45.630;8.886;2023-07-02T02:07:52;14.38;;;9.70;;
34405;SDS011;20658;45.630;8.886;2023-07-02T02:10:25;15.32;;;8.70;;
34405;SDS011;20658;45.630;8.886;2023-07-02T02:12:59;14.93;;;9.32;;
34405;SDS011;20658;45.630;8.886;2023-07-02T02:15:32;13.63;;;8.77;;
34405;SDS011;20658;45.630;8.886;2023-07-02T02:18:06;15.73;;;9.38;;
34405;SDS011;20658;45.630;8.886;2023-07-02T02:20:39;16.05;;;10.02;;
34405;SDS011;20658;45.630;8.886;2023-07-02T02:23:09;14.73;;;9.52;;
34405;SDS011;20658;45.630;8.886;2023-07-02T02:25:43;14.10;;;8.40;;
34405;SDS011;20658;45.630;8.886;2023-07-02T02:28:11;15.60;;;9.48;;
34405;SDS011;20658;45.630;8.886;2023-07-02T02:30:45;17.70;;;10.68;;
34405;SDS011;20658;45.630;8.886;2023-07-02T02:33:19;13.60;;;9.45;;
34405;SDS011;20658;45.630;8.886;2023-07-02T02:35:54;18.95;;;11.55;;
34405;SDS011;20658;45.630;8.886;2023-07-02T02:38:29;17.00;;;10.07;;
34405;SDS011;20658;45.630;8.886;2023-07-02T02:41:02;18.45;;;11.07;;
34405;SDS011;20658;45.630;8.886;2023-07-02T02:43:40;16.92;;;10.60;;
34405;SDS011;20658;45.630;8.886;2023-07-02T02:46:11;16.38;;;10.90;;
34405;SDS011;20658;45.630;8.886;2023-07-02T02:48:45;18.23;;;10.60;;
34405;SDS011;20658;45.630;8.886;2023-07-02T02:51:19;22.00;;;11.48;;
34405;SDS011;20658;45.630;8.886;2023-07-02T02:53:54;16.17;;;10.80;;
34405;SDS011;20658;45.630;8.886;2023-07-02T02:56:22;20.00;;;12.05;;
34405;SDS011;20658;45.630;8.886;2023-07-02T02:58:56;16.27;;;11.10;;
34405;SDS011;20658;45.630;8.886;2023-07-02T03:01:29;20.50;;;11.50;;
34405;SDS011;20658;45.630;8.886;2023-07-02T03:04:03;18.63;;;10.48;;
34405;SDS011;20658;45.630;8.886;2023-07-02T03:06:39;18.08;;;11.25;;
34405;SDS011;20658;45.630;8.886;2023-07-02T03:09:14;20.23;;;12.07;;
34405;SDS011;20658;45.630;8.886;2023-07-02T03:11:48;16.88;;;10.25;;
34405;SDS011;20658;45.630;8.886;2023-07-02T03:14:22;14.75;;;10.18;;
34405;SDS011;20658;45.630;8.886;2023-07-02T03:16:55;13.73;;;9.27;;
34405;SDS011;20658;45.630;8.886;2023-07-02T03:19:28;17.63;;;10.95;;
34405;SDS011;20658;45.630;8.886;2023-07-02T03:22:02;19.10;;;12.55;;
34405;SDS011;20658;45.630;8.886;2023-07-02T03:24:37;17.05;;;11.35;;
34405;SDS011;20658;45.630;8.886;2023-07-02T03:27:10;15.70;;;11.35;;
34405;SDS011;20658;45.630;8.886;2023-07-02T03:29:44;17.67;;;10.65;;
34405;SDS011;20658;45.630;8.886;2023-07-02T03:32:17;17.70;;;10.93;;
34405;SDS011;20658;45.630;8.886;2023-07-02T03:34:46;18.85;;;10.57;;
34405;SDS011;20658;45.630;8.886;2023-07-02T03:37:19;15.32;;;10.60;;
34405;SDS011;20658;45.630;8.886;2023-07-02T03:39:55;16.92;;;9.77;;
34405;SDS011;20658;45.630;8.886;2023-07-02T03:42:30;17.42;;;10.43;;
34405;SDS011;20658;45.630;8.886;2023-07-02T03:45:00;15.85;;;9.27;;
34405;SDS011;20658;45.630;8.886;2023-07-02T03:47:34;18.58;;;9.80;;
34405;SDS011;20658;45.630;8.886;2023-07-02T03:50:08;19.50;;;10.15;;
34405;SDS011;20658;45.630;8.886;2023-07-02T03:52:42;17.05;;;9.43;;
34405;SDS011;20658;45.630;8.886;2023-07-02T03:55:17;13.70;;;8.85;;
34405;SDS011;20658;45.630;8.886;2023-07-02T03:57:52;16.65;;;9.40;;
34405;SDS011;20658;45.630;8.886;2023-07-02T04:00:25;14.30;;;9.27;;
34405;SDS011;20658;45.630;8.886;2023-07-02T04:02:58;17.00;;;10.63;;
34405;SDS011;20658;45.630;8.886;2023-07-02T04:05:33;16.30;;;9.35;;
34405;SDS011;20658;45.630;8.886;2023-07-02T04:08:07;14.77;;;9.48;;
34405;SDS011;20658;45.630;8.886;2023-07-02T04:10:42;14.85;;;9.45;;
34405;SDS011;20658;45.630;8.886;2023-07-02T04:13:10;16.08;;;9.63;;
34405;SDS011;20658;45.630;8.886;2023-07-02T04:15:44;15.05;;;9.88;;
34405;SDS011;20658;45.630;8.886;2023-07-02T04:18:17;17.92;;;9.60;;
34405;SDS011;20658;45.630;8.886;2023-07-02T04:20:50;13.65;;;9.85;;
34405;SDS011;20658;45.630;8.886;2023-07-02T04:23:24;18.30;;;10.82;;
34405;SDS011;20658;45.630;8.886;2023-07-02T04:25:59;17.70;;;10.40;;
34405;SDS011;20658;45.630;8.886;2023-07-02T04:28:33;19.35;;;9.98;;
34405;SDS011;20658;45.630;8.886;2023-07-02T04:31:06;15.43;;;10.55;;
34405;SDS011;20658;45.630;8.886;2023-07-02T04:33:40;16.60;;;10.00;;
34405;SDS011;20658;45.630;8.886;2023-07-02T04:36:13;15.25;;;10.27;;
34405;SDS011;20658;45.630;8.886;2023-07-02T04:38:47;24.98;;;10.65;;
34405;SDS011;20658;45.630;8.886;2023-07-02T04:41:21;15.52;;;10.20;;
34405;SDS011;20658;45.630;8.886;2023-07-02T04:43:55;16.40;;;9.50;;
34405;SDS011;20658;45.630;8.886;2023-07-02T04:46:28;13.48;;;9.10;;
34405;SDS011;20658;45.630;8.886;2023-07-02T04:49:02;18.13;;;10.05;;
34405;SDS011;20658;45.630;8.886;2023-07-02T04:51:35;15.65;;;10.05;;
34405;SDS011;20658;45.630;8.886;2023-07-02T04:54:09;15.55;;;10.32;;
34405;SDS011;20658;45.630;8.886;2023-07-02T04:56:50;16.33;;;9.70;;
34405;SDS011;20658;45.630;8.886;2023-07-02T04:59:23;14.90;;;9.20;;
34405;SDS011;20658;45.630;8.886;2023-07-02T05:01:57;17.33;;;9.77;;
34405;SDS011;20658;45.630;8.886;2023-07-02T05:04:31;14.07;;;8.75;;
34405;SDS011;20658;45.630;8.886;2023-07-02T05:07:05;15.13;;;9.95;;
34405;SDS011;20658;45.630;8.886;2023-07-02T05:09:38;12.90;;;8.35;;
34405;SDS011;20658;45.630;8.886;2023-07-02T05:12:13;13.93;;;8.93;;
34405;SDS011;20658;45.630;8.886;2023-07-02T05:14:47;11.82;;;8.10;;
34405;SDS011;20658;45.630;8.886;2023-07-02T05:17:20;12.90;;;8.25;;
34405;SDS011;20658;45.630;8.886;2023-07-02T05:19:53;15.23;;;8.70;;
34405;SDS011;20658;45.630;8.886;2023-07-02T05:22:22;18.85;;;8.55;;
34405;SDS011;20658;45.630;8.886;2023-07-02T05:24:55;11.77;;;7.55;;
34405;SDS011;20658;45.630;8.886;2023-07-02T05:27:30;15.27;;;8.32;;
34405;SDS011;20658;45.630;8.886;2023-07-02T05:30:04;15.85;;;7.70;;
34405;SDS011;20658;45.630;8.886;2023-07-02T05:32:39;15.52;;;7.53;;
34405;SDS011;20658;45.630;8.886;2023-07-02T05:35:12;11.90;;;7.47;;
34405;SDS011;20658;45.630;8.886;2023-07-02T05:37:46;12.57;;;8.23;;
34405;SDS011;20658;45.630;8.886;2023-07-02T05:40:19;12.90;;;7.57;;
34405;SDS011;20658;45.630;8.886;2023-07-02T05:42:54;12.27;;;7.47;;
34405;SDS011;20658;45.630;8.886;2023-07-02T05:45:23;13.02;;;6.35;;
34405;SDS011;20658;45.630;8.886;2023-07-02T05:47:58;11.52;;;7.07;;
34405;SDS011;20658;45.630;8.886;2023-07-02T05:50:32;13.23;;;6.53;;
34405;SDS011;20658;45.630;8.886;2023-07-02T05:53:05;10.55;;;6.40;;
34405;SDS011;20658;45.630;8.886;2023-07-02T05:55:41;13.32;;;7.03;;
34405;SDS011;20658;45.630;8.886;2023-07-02T05:58:16;11.55;;;6.82;;
34405;SDS011;20658;45.630;8.886;2023-07-02T06:00:50;10.45;;;6.38;;
34405;SDS011;20658;45.630;8.886;2023-07-02T06:03:23;9.13;;;5.78;;
34405;SDS011;20658;45.630;8.886;2023-07-02T06:05:56;12.98;;;6.78;;
34405;SDS011;20658;45.630;8.886;2023-07-02T06:08:30;10.18;;;5.97;;
34405;SDS011;20658;45.630;8.886;2023-07-02T06:11:03;9.98;;;5.85;;
34405;SDS011;20658;45.630;8.886;2023-07-02T06:13:38;12.63;;;6.50;;
34405;SDS011;20658;45.630;8.886;2023-07-02T06:16:07;8.60;;;5.97;;
34405;SDS011;20658;45.630;8.886;2023-07-02T06:18:40;13.40;;;6.88;;
34405;SDS011;20658;45.630;8.886;2023-07-02T06:21:14;10.73;;;5.55;;
34405;SDS011;20658;45.630;8.886;2023-07-02T06:23:47;10.00;;;6.07;;
34405;SDS011;20658;45.630;8.886;2023-07-02T06:26:21;11.15;;;6.20;;
34405;SDS011;20658;45.630;8.886;2023-07-02T06:28:55;10.18;;;5.70;;
34405;SDS011;20658;45.630;8.886;2023-07-02T06:31:29;11.60;;;5.95;;
34405;SDS011;20658;45.630;8.886;2023-07-02T06:34:03;14.95;;;6.93;;
34405;SDS011;20658;45.630;8.886;2023-07-02T06:36:36;9.45;;;5.47;;
34405;SDS011;20658;45.630;8.886;2023-07-02T06:39:10;10.90;;;6.00;;
34405;SDS011;20658;45.630;8.886;2023-07-02T06:41:43;10.77;;;6.47;;
34405;SDS011;20658;45.630;8.886;2023-07-02T06:44:18;9.68;;;6.07;;
34405;SDS011;20658;45.630;8.886;2023-07-02T06:46:52;11.82;;;5.93;;
34405;SDS011;20658;45.630;8.886;2023-07-02T06:49:25;9.13;;;5.70;;
34405;SDS011;20658;45.630;8.886;2023-07-02T06:51:59;8.40;;;5.72;;
34405;SDS011;20658;45.630;8.886;2023-07-02T06:54:32;9.30;;;6.22;;
34405;SDS011;20658;45.630;8.886;2023-07-02T06:57:06;14.35;;;6.13;;
34405;SDS011;20658;45.630;8.886;2023-07-02T06:59:35;11.38;;;6.97;;
34405;SDS011;20658;45.630;8.886;2023-07-02T07:02:09;11.25;;;6.47;;
34405;SDS011;20658;45.630;8.886;2023-07-02T07:04:42;12.60;;;6.93;;
34405;SDS011;20658;45.630;8.886;2023-07-02T07:07:16;12.77;;;7.13;;
34405;SDS011;20658;45.630;8.886;2023-07-02T07:09:50;12.32;;;6.82;;
34405;SDS011;20658;45.630;8.886;2023-07-02T07:12:23;11.88;;;6.00;;
34405;SDS011;20658;45.630;8.886;2023-07-02T07:14:58;12.05;;;6.40;;
34405;SDS011;20658;45.630;8.886;2023-07-02T07:17:31;10.68;;;6.57;;
34405;SDS011;20658;45.630;8.886;2023-07-02T07:20:05;9.65;;;6.18;;
34405;SDS011;20658;45.630;8.886;2023-07-02T07:22:39;13.77;;;6.53;;
34405;SDS011;20658;45.630;8.886;2023-07-02T07:25:13;11.48;;;6.43;;
34405;SDS011;20658;45.630;8.886;2023-07-02T07:27:47;12.20;;;7.72;;
34405;SDS011;20658;45.630;8.886;2023-07-02T07:30:22;10.73;;;6.80;;
34405;SDS011;20658;45.630;8.886;2023-07-02T07:32:55;11.70;;;6.85;;
34405;SDS011;20658;45.630;8.886;2023-07-02T07:35:29;9.85;;;6.53;;
34405;SDS011;20658;45.630;8.886;2023-07-02T07:38:02;9.77;;;7.00;;
34405;SDS011;20658;45.630;8.886;2023-07-02T07:40:36;11.02;;;6.80;;
34405;SDS011;20658;45.630;8.886;2023-07-02T07:43:09;12.35;;;7.50;;
34405;SDS011;20658;45.630;8.886;2023-07-02T07:45:44;11.35;;;7.53;;
34405;SDS011;20658;45.630;8.886;2023-07-02T07:48:17;10.48;;;7.05;;
34405;SDS011;20658;45.630;8.886;2023-07-02T07:50:52;12.30;;;7.88;;
34405;SDS011;20658;45.630;8.886;2023-07-02T07:53:26;12.05;;;6.85;;
34405;SDS011;20658;45.630;8.886;2023-07-02T07:55:59;12.57;;;7.03;;
34405;SDS011;20658;45.630;8.886;2023-07-02T07:58:33;9.70;;;7.18;;
34405;SDS011;20658;45.630;8.886;2023-07-02T08:01:07;9.65;;;6.88;;
34405;SDS011;20658;45.630;8.886;2023-07-02T08:03:41;10.15;;;6.68;;
34405;SDS011;20658;45.630;8.886;2023-07-02T08:06:14;10.90;;;7.22;;
34405;SDS011;20658;45.630;8.886;2023-07-02T08:08:48;12.05;;;8.10;;
34405;SDS011;20658;45.630;8.886;2023-07-02T08:11:21;14.00;;;7.95;;
34405;SDS011;20658;45.630;8.886;2023-07-02T08:13:54;11.00;;;7.28;;
34405;SDS011;20658;45.630;8.886;2023-07-02T08:16:29;10.63;;;6.80;;
34405;SDS011;20658;45.630;8.886;2023-07-02T08:19:03;10.43;;;6.93;;
34405;SDS011;20658;45.630;8.886;2023-07-02T08:21:36;13.70;;;7.82;;
34405;SDS011;20658;45.630;8.886;2023-07-02T08:24:10;13.23;;;8.25;;
34405;SDS011;20658;45.630;8.886;2023-07-02T08:26:44;12.07;;;7.75;;
34405;SDS011;20658;45.630;8.886;2023-07-02T08:29:19;12.15;;;7.43;;
34405;SDS011;20658;45.630;8.886;2023-07-02T08:31:54;13.20;;;6.78;;
34405;SDS011;20658;45.630;8.886;2023-07-02T08:34:27;10.15;;;6.15;;
34405;SDS011;20658;45.630;8.886;2023-07-02T08:37:00;9.48;;;5.75;;
34405;SDS011;20658;45.630;8.886;2023-07-02T08:39:34;14.43;;;6.75;;
34405;SDS011;20658;45.630;8.886;2023-07-02T08:42:08;20.20;;;7.95;;
34405;SDS011;20658;45.630;8.886;2023-07-02T08:44:44;14.30;;;6.80;;
34405;SDS011;20658;45.630;8.886;2023-07-02T08:47:20;11.93;;;6.50;;
34405;SDS011;20658;45.630;8.886;2023-07-02T08:49:54;10.30;;;5.95;;
34405;SDS011;20658;45.630;8.886;2023-07-02T08:52:28;9.40;;;5.28;;
34405;SDS011;20658;45.630;8.886;2023-07-02T08:55:01;11.13;;;6.55;;
34405;SDS011;20658;45.630;8.886;2023-07-02T08:57:35;10.13;;;6.45;;
34405;SDS011;20658;45.630;8.886;2023-07-02T09:00:09;10.38;;;7.25;;
34405;SDS011;20658;45.630;8.886;2023-07-02T09:02:45;12.00;;;7.07;;
34405;SDS011;20658;45.630;8.886;2023-07-02T09:05:19;11.05;;;5.90;;
34405;SDS011;20658;45.630;8.886;2023-07-02T09:07:52;10.68;;;6.28;;
34405;SDS011;20658;45.630;8.886;2023-07-02T09:10:27;13.52;;;6.80;;
34405;SDS011;20658;45.630;8.886;2023-07-02T09:13:02;11.10;;;5.80;;
34405;SDS011;20658;45.630;8.886;2023-07-02T09:15:37;8.63;;;5.18;;
34405;SDS011;20658;45.630;8.886;2023-07-02T09:18:19;11.07;;;6.10;;
34405;SDS011;20658;45.630;8.886;2023-07-02T09:20:55;12.00;;;5.75;;
34405;SDS011;20658;45.630;8.886;2023-07-02T09:23:31;9.43;;;5.47;;
34405;SDS011;20658;45.630;8.886;2023-07-02T09:26:07;8.85;;;5.15;;
34405;SDS011;20658;45.630;8.886;2023-07-02T09:28:59;10.45;;;5.10;;
34405;SDS011;20658;45.630;8.886;2023-07-02T09:31:42;8.77;;;4.85;;
34405;SDS011;20658;45.630;8.886;2023-07-02T09:34:18;11.23;;;4.43;;
34405;SDS011;20658;45.630;8.886;2023-07-02T09:36:47;9.68;;;6.53;;
34405;SDS011;20658;45.630;8.886;2023-07-02T09:39:17;6.57;;;4.35;;
34405;SDS011;20658;45.630;8.886;2023-07-02T09:41:52;9.35;;;5.50;;
34405;SDS011;20658;45.630;8.886;2023-07-02T09:44:27;9.13;;;5.00;;
34405;SDS011;20658;45.630;8.886;2023-07-02T09:47:03;7.43;;;4.75;;
34405;SDS011;20658;45.630;8.886;2023-07-02T09:49:41;8.52;;;5.18;;
34405;SDS011;20658;45.630;8.886;2023-07-02T09:52:20;7.07;;;4.13;;
34405;SDS011;20658;45.630;8.886;2023-07-02T09:54:58;9.70;;;4.70;;
34405;SDS011;20658;45.630;8.886;2023-07-02T09:57:27;8.60;;;5.07;;
34405;SDS011;20658;45.630;8.886;2023-07-02T09:59:58;9.45;;;5.22;;
34405;SDS011;20658;45.630;8.886;2023-07-02T10:02:32;7.90;;;5.28;;
34405;SDS011;20658;45.630;8.886;2023-07-02T10:05:07;10.23;;;5.38;;
34405;SDS011;20658;45.630;8.886;2023-07-02T10:07:35;10.88;;;5.13;;
34405;SDS011;20658;45.630;8.886;2023-07-02T10:10:09;11.13;;;5.43;;
34405;SDS011;20658;45.630;8.886;2023-07-02T10:12:45;8.85;;;5.15;;
34405;SDS011;20658;45.630;8.886;2023-07-02T10:15:23;9.23;;;5.75;;
34405;SDS011;20658;45.630;8.886;2023-07-02T10:17:58;9.93;;;5.05;;
34405;SDS011;20658;45.630;8.886;2023-07-02T10:20:37;7.93;;;4.57;;
34405;SDS011;20658;45.630;8.886;2023-07-02T10:23:13;10.07;;;4.93;;
34405;SDS011;20658;45.630;8.886;2023-07-02T10:25:47;8.32;;;4.70;;
34405;SDS011;20658;45.630;8.886;2023-07-02T10:28:21;11.82;;;5.25;;
34405;SDS011;20658;45.630;8.886;2023-07-02T10:30:58;9.10;;;5.00;;
34405;SDS011;20658;45.630;8.886;2023-07-02T10:33:31;8.38;;;4.72;;
34405;SDS011;20658;45.630;8.886;2023-07-02T10:36:06;8.73;;;4.90;;
34405;SDS011;20658;45.630;8.886;2023-07-02T10:38:51;7.72;;;4.28;;
34405;SDS011;20658;45.630;8.886;2023-07-02T10:41:25;14.13;;;8.40;;
34405;SDS011;20658;45.630;8.886;2023-07-02T10:44:07;7.63;;;4.72;;
34405;SDS011;20658;45.630;8.886;2023-07-02T10:46:45;7.55;;;4.82;;
34405;SDS011;20658;45.630;8.886;2023-07-02T10:49:19;7.32;;;4.80;;
34405;SDS011;20658;45.630;8.886;2023-07-02T10:51:57;8.57;;;4.80;;
34405;SDS011;20658;45.630;8.886;2023-07-02T10:54:41;9.35;;;4.25;;
34405;SDS011;20658;45.630;8.886;2023-07-02T10:57:18;7.68;;;4.57;;
34405;SDS011;20658;45.630;8.886;2023-07-02T10:59:52;12.52;;;4.57;;
34405;SDS011;20658;45.630;8.886;2023-07-02T11:02:36;8.68;;;4.78;;
34405;SDS011;20658;45.630;8.886;2023-07-02T11:05:10;10.40;;;4.68;;
34405;SDS011;20658;45.630;8.886;2023-07-02T11:07:46;9.68;;;4.13;;
34405;SDS011;20658;45.630;8.886;2023-07-02T11:10:25;8.65;;;5.53;;
34405;SDS011;20658;45.630;8.886;2023-07-02T11:13:09;8.88;;;4.75;;
34405;SDS011;20658;45.630;8.886;2023-07-02T11:15:43;10.10;;;5.00;;
34405;SDS011;20658;45.630;8.886;2023-07-02T11:18:17;8.38;;;4.35;;
34405;SDS011;20658;45.630;8.886;2023-07-02T11:20:52;10.63;;;6.25;;
34405;SDS011;20658;45.630;8.886;2023-07-02T11:23:27;8.18;;;4.88;;
34405;SDS011;20658;45.630;8.886;2023-07-02T11:26:02;9.23;;;5.50;;
34405;SDS011;20658;45.630;8.886;2023-07-02T11:28:46;7.50;;;4.68;;
34405;SDS011;20658;45.630;8.886;2023-07-02T11:31:26;6.95;;;4.55;;
34405;SDS011;20658;45.630;8.886;2023-07-02T11:34:00;9.93;;;4.70;;
34405;SDS011;20658;45.630;8.886;2023-07-02T11:36:33;9.32;;;4.68;;
34405;SDS011;20658;45.630;8.886;2023-07-02T11:39:08;8.27;;;4.85;;
34405;SDS011;20658;45.630;8.886;2023-07-02T11:41:42;10.73;;;5.03;;
34405;SDS011;20658;45.630;8.886;2023-07-02T11:44:17;8.57;;;4.68;;
34405;SDS011;20658;45.630;8.886;2023-07-02T11:46:50;8.18;;;5.65;;
34405;SDS011;20658;45.630;8.886;2023-07-02T11:49:24;7.63;;;4.78;;
34405;SDS011;20658;45.630;8.886;2023-07-02T11:51:58;9.93;;;5.15;;
34405;SDS011;20658;45.630;8.886;2023-07-02T11:54:32;7.45;;;4.30;;
34405;SDS011;20658;45.630;8.886;2023-07-02T11:57:06;9.27;;;4.80;;
34405;SDS011;20658;45.630;8.886;2023-07-02T11:59:40;7.75;;;4.70;;
34405;SDS011;20658;45.630;8.886;2023-07-02T12:02:14;6.47;;;4.32;;
34405;SDS011;20658;45.630;8.886;2023-07-02T12:04:47;6.55;;;4.18;;
34405;SDS011;20658;45.630;8.886;2023-07-02T12:07:21;7.00;;;4.55;;
34405;SDS011;20658;45.630;8.886;2023-07-02T12:09:56;6.90;;;4.28;;
34405;SDS011;20658;45.630;8.886;2023-07-02T12:12:29;8.13;;;4.22;;
34405;SDS011;20658;45.630;8.886;2023-07-02T12:15:03;7.78;;;4.78;;
34405;SDS011;20658;45.630;8.886;2023-07-02T12:17:37;8.38;;;4.55;;
34405;SDS011;20658;45.630;8.886;2023-07-02T12:20:11;7.47;;;4.28;;
34405;SDS011;20658;45.630;8.886;2023-07-02T12:22:45;6.85;;;4.57;;
34405;SDS011;20658;45.630;8.886;2023-07-02T12:25:20;10.32;;;4.80;;
34405;SDS011;20658;45.630;8.886;2023-07-02T12:27:53;9.15;;;4.90;;
34405;SDS011;20658;45.630;8.886;2023-07-02T12:30:27;8.52;;;4.63;;
34405;SDS011;20658;45.630;8.886;2023-07-02T12:33:01;8.30;;;4.57;;
34405;SDS011;20658;45.630;8.886;2023-07-02T12:35:34;7.68;;;4.65;;
34405;SDS011;20658;45.630;8.886;2023-07-02T12:38:08;5.78;;;4.32;;
34405;SDS011;20658;45.630;8.886;2023-07-02T12:40:43;6.25;;;4.00;;
34405;SDS011;20658;45.630;8.886;2023-07-02T12:43:16;5.70;;;3.78;;
34405;SDS011;20658;45.630;8.886;2023-07-02T12:45:51;7.47;;;4.35;;
34405;SDS011;20658;45.630;8.886;2023-07-02T12:48:24;6.32;;;4.75;;
34405;SDS011;20658;45.630;8.886;2023-07-02T12:50:53;6.72;;;4.75;;
34405;SDS011;20658;45.630;8.886;2023-07-02T12:53:27;7.70;;;4.78;;
34405;SDS011;20658;45.630;8.886;2023-07-02T12:56:03;8.88;;;4.68;;
34405;SDS011;20658;45.630;8.886;2023-07-02T12:58:37;8.18;;;4.50;;
34405;SDS011;20658;45.630;8.886;2023-07-02T13:01:13;8.05;;;4.15;;
34405;SDS011;20658;45.630;8.886;2023-07-02T13:03:47;6.70;;;4.60;;
34405;SDS011;20658;45.630;8.886;2023-07-02T13:06:23;8.90;;;4.47;;
34405;SDS011;20658;45.630;8.886;2023-07-02T13:08:57;9.15;;;4.95;;
34405;SDS011;20658;45.630;8.886;2023-07-02T13:11:27;8.10;;;4.88;;
34405;SDS011;20658;45.630;8.886;2023-07-02T13:14:00;8.57;;;4.57;;
34405;SDS011;20658;45.630;8.886;2023-07-02T13:16:34;10.05;;;5.15;;
34405;SDS011;20658;45.630;8.886;2023-07-02T13:19:08;7.43;;;5.20;;
34405;SDS011;20658;45.630;8.886;2023-07-02T13:21:42;11.25;;;5.93;;
34405;SDS011;20658;45.630;8.886;2023-07-02T13:24:15;7.32;;;5.13;;
34405;SDS011;20658;45.630;8.886;2023-07-02T13:26:50;10.55;;;5.40;;
34405;SDS011;20658;45.630;8.886;2023-07-02T13:29:24;7.97;;;5.03;;
34405;SDS011;20658;45.630;8.886;2023-07-02T13:31:58;8.05;;;4.75;;
34405;SDS011;20658;45.630;8.886;2023-07-02T13:34:31;7.70;;;4.88;;
34405;SDS011;20658;45.630;8.886;2023-07-02T13:37:05;7.05;;;4.95;;
34405;SDS011;20658;45.630;8.886;2023-07-02T13:39:38;7.43;;;4.38;;
34405;SDS011;20658;45.630;8.886;2023-07-02T13:42:13;9.35;;;4.57;;
34405;SDS011;20658;45.630;8.886;2023-07-02T13:44:47;8.80;;;4.30;;
34405;SDS011;20658;45.630;8.886;2023-07-02T13:47:20;12.32;;;5.38;;
34405;SDS011;20658;45.630;8.886;2023-07-02T13:49:54;6.10;;;4.20;;
34405;SDS011;20658;45.630;8.886;2023-07-02T13:52:27;8.77;;;4.38;;
34405;SDS011;20658;45.630;8.886;2023-07-02T13:55:01;8.43;;;3.90;;
34405;SDS011;20658;45.630;8.886;2023-07-02T13:57:36;7.75;;;4.22;;
34405;SDS011;20658;45.630;8.886;2023-07-02T14:00:11;10.82;;;4.53;;
34405;SDS011;20658;45.630;8.886;2023-07-02T14:02:45;6.72;;;4.40;;
34405;SDS011;20658;45.630;8.886;2023-07-02T14:05:19;8.00;;;4.28;;
34405;SDS011;20658;45.630;8.886;2023-07-02T14:07:53;5.55;;;3.97;;
34405;SDS011;20658;45.630;8.886;2023-07-02T14:10:26;6.50;;;3.95;;
34405;SDS011;20658;45.630;8.886;2023-07-02T14:12:55;6.18;;;4.45;;
34405;SDS011;20658;45.630;8.886;2023-07-02T14:15:26;6.78;;;4.13;;
34405;SDS011;20658;45.630;8.886;2023-07-02T14:17:55;8.75;;;4.03;;
34405;SDS011;20658;45.630;8.886;2023-07-02T14:20:28;7.50;;;4.13;;
34405;SDS011;20658;45.630;8.886;2023-07-02T14:23:02;6.22;;;3.78;;
34405;SDS011;20658;45.630;8.886;2023-07-02T14:25:30;6.57;;;3.80;;
34405;SDS011;20658;45.630;8.886;2023-07-02T14:28:04;6.68;;;4.30;;
34405;SDS011;20658;45.630;8.886;2023-07-02T14:30:39;6.97;;;4.30;;
34405;SDS011;20658;45.630;8.886;2023-07-02T14:33:14;6.05;;;3.65;;
34405;SDS011;20658;45.630;8.886;2023-07-02T14:35:47;6.97;;;3.63;;
34405;SDS011;20658;45.630;8.886;2023-07-02T14:38:21;6.18;;;3.55;;
34405;SDS011;20658;45.630;8.886;2023-07-02T14:40:59;8.35;;;4.35;;
34405;SDS011;20658;45.630;8.886;2023-07-02T14:43:33;6.60;;;3.92;;
34405;SDS011;20658;45.630;8.886;2023-07-02T14:46:08;7.07;;;4.10;;
34405;SDS011;20658;45.630;8.886;2023-07-02T14:48:42;8.13;;;3.33;;
34405;SDS011;20658;45.630;8.886;2023-07-02T14:51:17;5.65;;;3.17;;
34405;SDS011;20658;45.630;8.886;2023-07-02T14:53:50;9.68;;;3.58;;
34405;SDS011;20658;45.630;8.886;2023-07-02T14:56:24;8.70;;;3.20;;
34405;SDS011;20658;45.630;8.886;2023-07-02T14:58:57;7.35;;;3.63;;
34405;SDS011;20658;45.630;8.886;2023-07-02T15:01:32;5.57;;;3.17;;
34405;SDS011;20658;45.630;8.886;2023-07-02T15:04:06;5.47;;;3.60;;
34405;SDS011;20658;45.630;8.886;2023-07-02T15:06:39;5.57;;;3.22;;
34405;SDS011;20658;45.630;8.886;2023-07-02T15:09:12;3.53;;;2.60;;
34405;SDS011;20658;45.630;8.886;2023-07-02T15:11:48;7.72;;;3.05;;
34405;SDS011;20658;45.630;8.886;2023-07-02T15:14:21;7.15;;;3.55;;
34405;SDS011;20658;45.630;8.886;2023-07-02T15:16:56;4.28;;;3.13;;
34405;SDS011;20658;45.630;8.886;2023-07-02T15:19:29;5.15;;;3.40;;